sensor_id;sensor_type;location;lat;lon;timestamp;pressure;altitude;pressure_sealevel;temperature;humidity
41246;BME280;53880;47.526;18.986;2024-01-07T00:02:06;98353.28;;;18.79;48.71
41246;BME280;53880;47.526;18.986;2024-01-07T00:04:27;98355.13;;;18.79;48.65
41246;BME280;53880;47.526;18.986;2024-01-07T00:06:46;98347.50;;;18.76;48.66
41246;BME280;53880;47.526;18.986;2024-01-07T00:09:03;98350.34;;;18.74;48.57
41246;BME280;53880;47.526;18.986;2024-01-07T00:11:23;98349.69;;;18.72;48.69
41246;BME280;53880;47.526;18.986;2024-01-07T00:13:44;98360.38;;;18.72;48.81
41246;BME280;53880;47.526;18.986;2024-01-07T00:16:04;98352.00;;;18.75;48.76
41246;BME280;53880;47.526;18.986;2024-01-07T00:18:22;98354.28;;;18.78;48.58
41246;BME280;53880;47.526;18.986;2024-01-07T00:20:39;98355.41;;;18.84;48.53
41246;BME280;53880;47.526;18.986;2024-01-07T00:22:57;98359.34;;;18.88;48.45
41246;BME280;53880;47.526;18.986;2024-01-07T00:25:14;98353.88;;;18.96;48.14
41246;BME280;53880;47.526;18.986;2024-01-07T00:27:31;98357.66;;;19.01;48.25
41246;BME280;53880;47.526;18.986;2024-01-07T00:29:49;98352.56;;;19.07;47.92
41246;BME280;53880;47.526;18.986;2024-01-07T00:32:06;98348.31;;;19.12;47.93
41246;BME280;53880;47.526;18.986;2024-01-07T00:34:26;98350.22;;;19.18;47.88
41246;BME280;53880;47.526;18.986;2024-01-07T00:36:43;98348.00;;;19.22;47.79
41246;BME280;53880;47.526;18.986;2024-01-07T00:38:59;98345.59;;;19.27;47.77
41246;BME280;53880;47.526;18.986;2024-01-07T00:41:21;98339.06;;;19.29;47.72
41246;BME280;53880;47.526;18.986;2024-01-07T00:43:36;98344.19;;;19.31;47.62
41246;BME280;53880;47.526;18.986;2024-01-07T00:45:51;98337.84;;;19.32;47.76
41246;BME280;53880;47.526;18.986;2024-01-07T00:48:11;98341.31;;;19.32;47.86
41246;BME280;53880;47.526;18.986;2024-01-07T00:50:26;98341.53;;;19.31;47.87
41246;BME280;53880;47.526;18.986;2024-01-07T00:52:45;98346.03;;;19.30;47.94
41246;BME280;53880;47.526;18.986;2024-01-07T00:55:04;98346.44;;;19.27;47.91
41246;BME280;53880;47.526;18.986;2024-01-07T00:57:22;98349.09;;;19.27;48.12
41246;BME280;53880;47.526;18.986;2024-01-07T00:59:39;98352.59;;;19.28;47.90
41246;BME280;53880;47.526;18.986;2024-01-07T01:01:55;98350.09;;;19.26;48.04
41246;BME280;53880;47.526;18.986;2024-01-07T01:04:10;98353.59;;;19.27;47.92
41246;BME280;53880;47.526;18.986;2024-01-07T01:06:25;98352.13;;;19.24;48.10
41246;BME280;53880;47.526;18.986;2024-01-07T01:08:42;98354.16;;;19.22;48.08
41246;BME280;53880;47.526;18.986;2024-01-07T01:10:57;98349.88;;;19.21;48.14
41246;BME280;53880;47.526;18.986;2024-01-07T01:13:17;98341.22;;;19.19;48.00
41246;BME280;53880;47.526;18.986;2024-01-07T01:15:37;98346.72;;;19.18;48.22
41246;BME280;53880;47.526;18.986;2024-01-07T01:17:57;98339.56;;;19.18;47.96
41246;BME280;53880;47.526;18.986;2024-01-07T01:20:19;98337.44;;;19.14;48.25
41246;BME280;53880;47.526;18.986;2024-01-07T01:22:42;98341.97;;;19.13;48.02
41246;BME280;53880;47.526;18.986;2024-01-07T01:25:00;98339.47;;;19.12;48.22
41246;BME280;53880;47.526;18.986;2024-01-07T01:27:19;98334.34;;;19.10;48.11
41246;BME280;53880;47.526;18.986;2024-01-07T01:29:37;98338.22;;;19.08;48.26
41246;BME280;53880;47.526;18.986;2024-01-07T01:31:59;98337.56;;;19.06;48.31
41246;BME280;53880;47.526;18.986;2024-01-07T01:34:19;98334.63;;;19.00;48.23
41246;BME280;53880;47.526;18.986;2024-01-07T01:36:39;98332.81;;;19.01;48.29
41246;BME280;53880;47.526;18.986;2024-01-07T01:38:59;98333.00;;;18.99;48.42
41246;BME280;53880;47.526;18.986;2024-01-07T01:41:22;98331.53;;;18.97;48.45
41246;BME280;53880;47.526;18.986;2024-01-07T01:43:42;98330.91;;;18.95;48.50
41246;BME280;53880;47.526;18.986;2024-01-07T01:46:04;98333.72;;;18.93;48.43
41246;BME280;53880;47.526;18.986;2024-01-07T01:48:26;98334.97;;;18.91;48.41
41246;BME280;53880;47.526;18.986;2024-01-07T01:50:47;98329.78;;;18.89;48.54
41246;BME280;53880;47.526;18.986;2024-01-07T01:53:10;98334.50;;;18.87;48.39
41246;BME280;53880;47.526;18.986;2024-01-07T01:55:31;98332.03;;;18.86;48.73
41246;BME280;53880;47.526;18.986;2024-01-07T01:57:51;98325.00;;;18.85;48.48
41246;BME280;53880;47.526;18.986;2024-01-07T02:00:15;98335.88;;;18.83;48.50
41246;BME280;53880;47.526;18.986;2024-01-07T02:02:33;98328.06;;;18.82;48.57
41246;BME280;53880;47.526;18.986;2024-01-07T02:04:53;98328.28;;;18.80;48.61
41246;BME280;53880;47.526;18.986;2024-01-07T02:07:09;98328.44;;;18.79;48.68
41246;BME280;53880;47.526;18.986;2024-01-07T02:09:30;98324.31;;;18.76;48.58
41246;BME280;53880;47.526;18.986;2024-01-07T02:12:04;98325.34;;;18.75;48.60
41246;BME280;53880;47.526;18.986;2024-01-07T02:14:22;98317.53;;;18.74;48.85
41246;BME280;53880;47.526;18.986;2024-01-07T02:16:40;98318.53;;;18.73;48.82
41246;BME280;53880;47.526;18.986;2024-01-07T02:19:00;98315.03;;;18.72;48.61
41246;BME280;53880;47.526;18.986;2024-01-07T02:21:16;98318.09;;;18.69;48.55
41246;BME280;53880;47.526;18.986;2024-01-07T02:23:33;98311.09;;;18.68;48.72
41246;BME280;53880;47.526;18.986;2024-01-07T02:25:50;98306.84;;;18.74;48.66
41246;BME280;53880;47.526;18.986;2024-01-07T02:28:10;98307.09;;;18.79;48.52
41246;BME280;53880;47.526;18.986;2024-01-07T02:30:28;98304.06;;;18.82;48.27
41246;BME280;53880;47.526;18.986;2024-01-07T02:32:45;98304.50;;;18.85;48.26
41246;BME280;53880;47.526;18.986;2024-01-07T02:35:09;98304.56;;;18.92;48.05
41246;BME280;53880;47.526;18.986;2024-01-07T02:37:28;98303.00;;;18.97;48.09
41246;BME280;53880;47.526;18.986;2024-01-07T02:39:44;98302.25;;;19.03;48.12
41246;BME280;53880;47.526;18.986;2024-01-07T02:42:03;98297.97;;;19.09;47.83
41246;BME280;53880;47.526;18.986;2024-01-07T02:44:27;98299.06;;;19.15;47.87
41246;BME280;53880;47.526;18.986;2024-01-07T02:46:44;98284.97;;;19.21;47.80
41246;BME280;53880;47.526;18.986;2024-01-07T02:49:02;98292.56;;;19.24;47.84
41246;BME280;53880;47.526;18.986;2024-01-07T02:51:19;98286.84;;;19.27;47.68
41246;BME280;53880;47.526;18.986;2024-01-07T02:53:34;98283.81;;;19.30;47.65
41246;BME280;53880;47.526;18.986;2024-01-07T02:55:52;98281.94;;;19.30;47.81
41246;BME280;53880;47.526;18.986;2024-01-07T02:58:09;98289.16;;;19.30;47.80
41246;BME280;53880;47.526;18.986;2024-01-07T03:00:28;98288.31;;;19.29;47.63
41246;BME280;53880;47.526;18.986;2024-01-07T03:02:47;98287.69;;;19.27;47.88
41246;BME280;53880;47.526;18.986;2024-01-07T03:05:04;98286.84;;;19.27;47.93
41246;BME280;53880;47.526;18.986;2024-01-07T03:07:24;98284.19;;;19.27;47.81
41246;BME280;53880;47.526;18.986;2024-01-07T03:09:42;98274.91;;;19.23;48.00
41246;BME280;53880;47.526;18.986;2024-01-07T03:11:57;98272.25;;;19.23;47.93
41246;BME280;53880;47.526;18.986;2024-01-07T03:14:19;98277.78;;;19.21;47.93
41246;BME280;53880;47.526;18.986;2024-01-07T03:16:40;98276.94;;;19.21;47.91
41246;BME280;53880;47.526;18.986;2024-01-07T03:18:57;98275.28;;;19.20;48.02
41246;BME280;53880;47.526;18.986;2024-01-07T03:21:19;98273.00;;;19.17;48.09
41246;BME280;53880;47.526;18.986;2024-01-07T03:23:40;98271.34;;;19.16;48.10
41246;BME280;53880;47.526;18.986;2024-01-07T03:25:58;98281.41;;;19.14;48.24
41246;BME280;53880;47.526;18.986;2024-01-07T03:28:15;98264.75;;;19.12;48.14
41246;BME280;53880;47.526;18.986;2024-01-07T03:30:33;98270.28;;;19.10;48.06
41246;BME280;53880;47.526;18.986;2024-01-07T03:32:48;98272.31;;;19.08;48.15
41246;BME280;53880;47.526;18.986;2024-01-07T03:35:06;98273.53;;;19.06;48.24
41246;BME280;53880;47.526;18.986;2024-01-07T03:37:23;98268.19;;;19.06;48.24
41246;BME280;53880;47.526;18.986;2024-01-07T03:39:46;98271.84;;;19.04;48.36
41246;BME280;53880;47.526;18.986;2024-01-07T03:42:04;98271.41;;;19.01;48.16
41246;BME280;53880;47.526;18.986;2024-01-07T03:44:28;98273.44;;;18.99;48.35
41246;BME280;53880;47.526;18.986;2024-01-07T03:46:45;98268.31;;;18.97;48.48
41246;BME280;53880;47.526;18.986;2024-01-07T03:49:00;98272.81;;;18.97;48.32
41246;BME280;53880;47.526;18.986;2024-01-07T03:51:22;98270.34;;;18.95;48.23
41246;BME280;53880;47.526;18.986;2024-01-07T03:53:38;98268.88;;;18.93;48.41
41246;BME280;53880;47.526;18.986;2024-01-07T03:55:57;98272.56;;;18.92;48.32
41246;BME280;53880;47.526;18.986;2024-01-07T03:58:15;98265.59;;;18.91;48.51
41246;BME280;53880;47.526;18.986;2024-01-07T04:00:29;98268.41;;;18.89;48.37
41246;BME280;53880;47.526;18.986;2024-01-07T04:02:49;98272.13;;;18.88;48.57
41246;BME280;53880;47.526;18.986;2024-01-07T04:05:07;98269.63;;;18.87;48.54
41246;BME280;53880;47.526;18.986;2024-01-07T04:07:27;98271.66;;;18.85;48.57
41246;BME280;53880;47.526;18.986;2024-01-07T04:09:43;98265.50;;;18.84;48.48
41246;BME280;53880;47.526;18.986;2024-01-07T04:12:01;98279.84;;;18.83;48.58
41246;BME280;53880;47.526;18.986;2024-01-07T04:14:22;98280.06;;;18.82;48.52
41246;BME280;53880;47.526;18.986;2024-01-07T04:16:44;98276.56;;;18.81;48.41
41246;BME280;53880;47.526;18.986;2024-01-07T04:19:00;98282.09;;;18.80;48.46
41246;BME280;53880;47.526;18.986;2024-01-07T04:21:19;98275.28;;;18.77;48.55
41246;BME280;53880;47.526;18.986;2024-01-07T04:23:37;98283.28;;;18.77;48.53
41246;BME280;53880;47.526;18.986;2024-01-07T04:25:55;98285.13;;;18.77;48.49
41246;BME280;53880;47.526;18.986;2024-01-07T04:28:15;98282.84;;;18.74;48.48
41246;BME280;53880;47.526;18.986;2024-01-07T04:30:32;98275.00;;;18.72;48.52
41246;BME280;53880;47.526;18.986;2024-01-07T04:32:50;98280.53;;;18.71;48.67
41246;BME280;53880;47.526;18.986;2024-01-07T04:35:06;98283.41;;;18.69;48.54
41246;BME280;53880;47.526;18.986;2024-01-07T04:37:28;98287.91;;;18.69;48.70
41246;BME280;53880;47.526;18.986;2024-01-07T04:39:47;98277.88;;;18.71;48.61
41246;BME280;53880;47.526;18.986;2024-01-07T04:42:05;98281.63;;;18.76;48.47
41246;BME280;53880;47.526;18.986;2024-01-07T04:44:25;98282.09;;;18.80;48.33
41246;BME280;53880;47.526;18.986;2024-01-07T04:46:48;98279.66;;;18.85;48.25
41246;BME280;53880;47.526;18.986;2024-01-07T04:49:10;98281.41;;;18.92;48.23
41246;BME280;53880;47.526;18.986;2024-01-07T04:51:28;98280.00;;;18.96;48.05
41246;BME280;53880;47.526;18.986;2024-01-07T04:53:48;98288.06;;;19.03;48.10
41246;BME280;53880;47.526;18.986;2024-01-07T04:56:08;98284.84;;;19.08;47.96
41246;BME280;53880;47.526;18.986;2024-01-07T04:58:28;98286.72;;;19.14;47.74
41246;BME280;53880;47.526;18.986;2024-01-07T05:00:50;98284.97;;;19.21;47.66
41246;BME280;53880;47.526;18.986;2024-01-07T05:03:10;98279.22;;;19.24;47.86
41246;BME280;53880;47.526;18.986;2024-01-07T05:05:31;98278.84;;;19.27;47.58
41246;BME280;53880;47.526;18.986;2024-01-07T05:07:48;98282.34;;;19.27;47.71
41246;BME280;53880;47.526;18.986;2024-01-07T05:10:08;98273.31;;;19.28;47.80
41246;BME280;53880;47.526;18.986;2024-01-07T05:12:28;98284.63;;;19.30;47.78
41246;BME280;53880;47.526;18.986;2024-01-07T05:14:43;98276.19;;;19.27;47.71
41246;BME280;53880;47.526;18.986;2024-01-07T05:17:01;98270.00;;;19.26;47.79
41246;BME280;53880;47.526;18.986;2024-01-07T05:19:18;98272.03;;;19.24;47.73
41246;BME280;53880;47.526;18.986;2024-01-07T05:21:38;98277.59;;;19.23;47.95
41246;BME280;53880;47.526;18.986;2024-01-07T05:23:55;98268.75;;;19.22;48.02
41246;BME280;53880;47.526;18.986;2024-01-07T05:26:10;98274.91;;;19.23;48.04
41246;BME280;53880;47.526;18.986;2024-01-07T05:28:27;98267.09;;;19.21;48.03
41246;BME280;53880;47.526;18.986;2024-01-07T05:30:45;98269.78;;;19.21;48.09
41246;BME280;53880;47.526;18.986;2024-01-07T05:33:09;98266.28;;;19.21;47.95
41246;BME280;53880;47.526;18.986;2024-01-07T05:35:32;98272.63;;;19.20;48.11
41246;BME280;53880;47.526;18.986;2024-01-07T05:37:47;98272.81;;;19.18;48.01
41246;BME280;53880;47.526;18.986;2024-01-07T05:40:07;98275.47;;;19.18;47.92
41246;BME280;53880;47.526;18.986;2024-01-07T05:42:30;98272.19;;;19.16;48.14
41246;BME280;53880;47.526;18.986;2024-01-07T05:44:48;98272.19;;;19.16;48.03
41246;BME280;53880;47.526;18.986;2024-01-07T05:47:07;98276.88;;;19.14;48.22
41246;BME280;53880;47.526;18.986;2024-01-07T05:49:22;98276.44;;;19.11;48.11
41246;BME280;53880;47.526;18.986;2024-01-07T05:51:42;98279.28;;;19.09;48.13
41246;BME280;53880;47.526;18.986;2024-01-07T05:53:57;98279.28;;;19.09;48.32
41246;BME280;53880;47.526;18.986;2024-01-07T05:56:12;98276.19;;;19.06;48.33
41246;BME280;53880;47.526;18.986;2024-01-07T05:58:30;98276.19;;;19.06;48.17
41246;BME280;53880;47.526;18.986;2024-01-07T06:00:45;98280.91;;;19.03;48.50
41246;BME280;53880;47.526;18.986;2024-01-07T06:03:03;98280.25;;;19.01;48.14
41246;BME280;53880;47.526;18.986;2024-01-07T06:05:24;98279.63;;;18.99;48.17
41246;BME280;53880;47.526;18.986;2024-01-07T06:07:44;98287.81;;;18.98;48.56
41246;BME280;53880;47.526;18.986;2024-01-07T06:10:01;98275.22;;;18.92;48.59
41246;BME280;53880;47.526;18.986;2024-01-07T06:12:17;98281.59;;;18.91;48.45
41246;BME280;53880;47.526;18.986;2024-01-07T06:14:34;98281.59;;;18.91;48.56
41246;BME280;53880;47.526;18.986;2024-01-07T06:16:52;98275.78;;;18.87;48.47
41246;BME280;53880;47.526;18.986;2024-01-07T06:19:09;98275.78;;;18.87;48.67
41246;BME280;53880;47.526;18.986;2024-01-07T06:21:25;98285.00;;;18.85;48.64
41246;BME280;53880;47.526;18.986;2024-01-07T06:23:47;98285.00;;;18.85;48.42
41246;BME280;53880;47.526;18.986;2024-01-07T06:26:03;98287.03;;;18.83;48.37
41246;BME280;53880;47.526;18.986;2024-01-07T06:28:18;98284.56;;;18.81;48.75
41246;BME280;53880;47.526;18.986;2024-01-07T06:30:36;98280.25;;;18.80;48.58
41246;BME280;53880;47.526;18.986;2024-01-07T06:33:01;98276.91;;;18.78;48.88
41246;BME280;53880;47.526;18.986;2024-01-07T06:35:19;98289.63;;;18.76;48.69
41246;BME280;53880;47.526;18.986;2024-01-07T06:37:41;98298.84;;;18.74;48.76
41246;BME280;53880;47.526;18.986;2024-01-07T06:40:01;98298.84;;;18.74;48.83
41246;BME280;53880;47.526;18.986;2024-01-07T06:42:21;98291.84;;;18.73;48.91
41246;BME280;53880;47.526;18.986;2024-01-07T06:44:38;98298.19;;;18.72;48.90
41246;BME280;53880;47.526;18.986;2024-01-07T06:46:58;98288.75;;;18.69;48.90
41246;BME280;53880;47.526;18.986;2024-01-07T06:49:15;98294.06;;;18.69;48.53
41246;BME280;53880;47.526;18.986;2024-01-07T06:51:32;98296.53;;;18.71;48.49
41246;BME280;53880;47.526;18.986;2024-01-07T06:53:50;98294.31;;;18.74;48.34
41246;BME280;53880;47.526;18.986;2024-01-07T06:56:11;98301.75;;;18.79;48.35
41246;BME280;53880;47.526;18.986;2024-01-07T06:58:28;98295.22;;;18.81;48.38
41246;BME280;53880;47.526;18.986;2024-01-07T07:00:46;98310.69;;;18.86;48.05
41246;BME280;53880;47.526;18.986;2024-01-07T07:03:10;98309.91;;;18.92;47.90
41246;BME280;53880;47.526;18.986;2024-01-07T07:05:30;98307.31;;;18.98;47.90
41246;BME280;53880;47.526;18.986;2024-01-07T07:07:50;98310.25;;;19.03;47.79
41246;BME280;53880;47.526;18.986;2024-01-07T07:10:05;98316.66;;;19.09;47.96
41246;BME280;53880;47.526;18.986;2024-01-07T07:12:23;98308.72;;;19.16;48.12
41246;BME280;53880;47.526;18.986;2024-01-07T07:14:42;98309.19;;;19.19;47.79
41246;BME280;53880;47.526;18.986;2024-01-07T07:16:58;98318.25;;;19.25;47.56
41246;BME280;53880;47.526;18.986;2024-01-07T07:19:12;98315.03;;;19.29;47.89
41246;BME280;53880;47.526;18.986;2024-01-07T07:21:34;98316.97;;;19.35;47.65
41246;BME280;53880;47.526;18.986;2024-01-07T07:23:51;98316.13;;;19.35;47.63
41246;BME280;53880;47.526;18.986;2024-01-07T07:26:13;98326.00;;;19.34;47.90
41246;BME280;53880;47.526;18.986;2024-01-07T07:28:30;98325.31;;;19.32;47.76
41246;BME280;53880;47.526;18.986;2024-01-07T07:30:45;98325.50;;;19.31;48.02
41246;BME280;53880;47.526;18.986;2024-01-07T07:33:03;98322.19;;;19.29;47.99
41246;BME280;53880;47.526;18.986;2024-01-07T07:35:23;98315.22;;;19.28;48.08
41246;BME280;53880;47.526;18.986;2024-01-07T07:37:39;98321.56;;;19.27;48.21
41246;BME280;53880;47.526;18.986;2024-01-07T07:39:55;98320.72;;;19.26;47.89
41246;BME280;53880;47.526;18.986;2024-01-07T07:42:15;98328.09;;;19.24;47.94
41246;BME280;53880;47.526;18.986;2024-01-07T07:44:31;98330.97;;;19.23;48.02
41246;BME280;53880;47.526;18.986;2024-01-07T07:46:53;98326.63;;;19.22;48.12
41246;BME280;53880;47.526;18.986;2024-01-07T07:49:12;98330.16;;;19.22;48.10
41246;BME280;53880;47.526;18.986;2024-01-07T07:51:33;98333.00;;;19.21;48.08
41246;BME280;53880;47.526;18.986;2024-01-07T07:53:53;98337.88;;;19.17;48.14
41246;BME280;53880;47.526;18.986;2024-01-07T07:56:10;98338.09;;;19.16;48.22
41246;BME280;53880;47.526;18.986;2024-01-07T07:58:25;98338.09;;;19.16;48.22
41246;BME280;53880;47.526;18.986;2024-01-07T08:00:47;98345.47;;;19.14;48.24
41246;BME280;53880;47.526;18.986;2024-01-07T08:03:03;98338.84;;;19.10;48.32
41246;BME280;53880;47.526;18.986;2024-01-07T08:05:18;98346.22;;;19.08;48.32
41246;BME280;53880;47.526;18.986;2024-01-07T08:07:38;98344.56;;;19.07;48.51
41246;BME280;53880;47.526;18.986;2024-01-07T08:09:53;98344.56;;;19.07;48.50
41246;BME280;53880;47.526;18.986;2024-01-07T08:12:09;98342.91;;;19.06;48.54
41246;BME280;53880;47.526;18.986;2024-01-07T08:14:26;98345.78;;;19.04;48.42
41246;BME280;53880;47.526;18.986;2024-01-07T08:16:46;98349.66;;;19.01;48.67
41246;BME280;53880;47.526;18.986;2024-01-07T08:19:01;98355.78;;;19.02;48.52
41246;BME280;53880;47.526;18.986;2024-01-07T08:21:17;98352.50;;;19.00;48.64
41246;BME280;53880;47.526;18.986;2024-01-07T08:23:32;98353.72;;;18.97;48.59
41246;BME280;53880;47.526;18.986;2024-01-07T08:25:50;98354.06;;;18.94;48.59
41246;BME280;53880;47.526;18.986;2024-01-07T08:28:08;98360.25;;;18.95;48.64
41246;BME280;53880;47.526;18.986;2024-01-07T08:30:29;98356.94;;;18.93;48.65
41246;BME280;53880;47.526;18.986;2024-01-07T08:32:46;98362.44;;;18.91;48.61
41246;BME280;53880;47.526;18.986;2024-01-07T08:35:04;98364.47;;;18.89;48.55
41246;BME280;53880;47.526;18.986;2024-01-07T08:37:21;98359.97;;;18.90;48.47
41246;BME280;53880;47.526;18.986;2024-01-07T08:39:36;98367.53;;;18.86;48.67
41246;BME280;53880;47.526;18.986;2024-01-07T08:41:54;98364.22;;;18.84;48.77
41246;BME280;53880;47.526;18.986;2024-01-07T08:44:12;98360.72;;;18.84;48.68
41246;BME280;53880;47.526;18.986;2024-01-07T08:46:26;98361.56;;;18.84;48.77
41246;BME280;53880;47.526;18.986;2024-01-07T08:48:49;98374.28;;;18.82;48.76
41246;BME280;53880;47.526;18.986;2024-01-07T08:51:09;98371.75;;;18.81;48.83
41246;BME280;53880;47.526;18.986;2024-01-07T08:53:24;98372.78;;;18.80;48.54
41246;BME280;53880;47.526;18.986;2024-01-07T08:55:40;98377.28;;;18.79;48.81
41246;BME280;53880;47.526;18.986;2024-01-07T08:57:57;98375.00;;;18.76;48.89
41246;BME280;53880;47.526;18.986;2024-01-07T09:00:15;98374.34;;;18.74;48.67
41246;BME280;53880;47.526;18.986;2024-01-07T09:02:33;98377.03;;;18.74;48.68
41246;BME280;53880;47.526;18.986;2024-01-07T09:04:48;98378.88;;;18.74;48.61
41246;BME280;53880;47.526;18.986;2024-01-07T09:07:05;98377.84;;;18.75;48.82
41246;BME280;53880;47.526;18.986;2024-01-07T09:09:27;98382.63;;;18.79;48.52
41246;BME280;53880;47.526;18.986;2024-01-07T09:11:45;98382.91;;;18.84;48.61
41246;BME280;53880;47.526;18.986;2024-01-07T09:14:03;98385.03;;;18.89;48.29
41246;BME280;53880;47.526;18.986;2024-01-07T09:16:20;98383.44;;;18.94;48.31
41246;BME280;53880;47.526;18.986;2024-01-07T09:18:37;98380.00;;;19.00;48.29
41246;BME280;53880;47.526;18.986;2024-01-07T09:20:55;98386.47;;;19.06;48.22
41246;BME280;53880;47.526;18.986;2024-01-07T09:23:12;98377.69;;;19.12;48.20
41246;BME280;53880;47.526;18.986;2024-01-07T09:25:32;98376.09;;;19.18;47.87
41246;BME280;53880;47.526;18.986;2024-01-07T09:27:54;98385.38;;;19.22;47.84
41246;BME280;53880;47.526;18.986;2024-01-07T09:30:10;98381.97;;;19.28;47.97
41246;BME280;53880;47.526;18.986;2024-01-07T09:32:29;98381.56;;;19.31;47.75
41246;BME280;53880;47.526;18.986;2024-01-07T09:34:46;98390.22;;;19.33;47.77
41246;BME280;53880;47.526;18.986;2024-01-07T09:37:11;98389.22;;;19.34;47.70
41246;BME280;53880;47.526;18.986;2024-01-07T09:39:27;98383.88;;;19.34;47.74
41246;BME280;53880;47.526;18.986;2024-01-07T09:41:43;98381.22;;;19.34;47.92
41246;BME280;53880;47.526;18.986;2024-01-07T09:44:06;98384.88;;;19.33;48.08
41246;BME280;53880;47.526;18.986;2024-01-07T09:46:26;98385.91;;;19.32;48.04
41246;BME280;53880;47.526;18.986;2024-01-07T09:48:46;98383.41;;;19.30;48.03
41246;BME280;53880;47.526;18.986;2024-01-07T09:51:08;98382.59;;;19.30;48.11
41246;BME280;53880;47.526;18.986;2024-01-07T09:53:31;98380.75;;;19.30;48.16
41246;BME280;53880;47.526;18.986;2024-01-07T09:56:17;98374.59;;;19.30;48.00
41246;BME280;53880;47.526;18.986;2024-01-07T09:58:37;98371.28;;;19.28;48.04
41246;BME280;53880;47.526;18.986;2024-01-07T10:00:55;98372.28;;;19.27;48.08
41246;BME280;53880;47.526;18.986;2024-01-07T10:03:13;98369.63;;;19.27;48.07
41246;BME280;53880;47.526;18.986;2024-01-07T10:05:28;98373.31;;;19.26;48.22
41246;BME280;53880;47.526;18.986;2024-01-07T10:07:46;98367.31;;;19.24;48.26
41246;BME280;53880;47.526;18.986;2024-01-07T10:12:34;98368.56;;;19.21;48.13
41246;BME280;53880;47.526;18.986;2024-01-07T10:14:54;98365.25;;;19.19;48.05
41246;BME280;53880;47.526;18.986;2024-01-07T10:17:20;98362.75;;;19.18;48.28
41246;BME280;53880;47.526;18.986;2024-01-07T10:19:38;98356.78;;;19.16;48.15
41246;BME280;53880;47.526;18.986;2024-01-07T10:22:01;98360.47;;;19.15;48.37
41246;BME280;53880;47.526;18.986;2024-01-07T10:24:21;98360.84;;;19.12;48.26
41246;BME280;53880;47.526;18.986;2024-01-07T10:26:41;98356.69;;;19.09;48.33
41246;BME280;53880;47.526;18.986;2024-01-07T10:28:58;98363.06;;;19.08;48.37
41246;BME280;53880;47.526;18.986;2024-01-07T10:31:14;98354.59;;;19.04;48.40
41246;BME280;53880;47.526;18.986;2024-01-07T10:33:32;98356.63;;;19.02;48.50
41246;BME280;53880;47.526;18.986;2024-01-07T10:35:54;98350.66;;;19.00;48.48
41246;BME280;53880;47.526;18.986;2024-01-07T10:38:16;98357.19;;;18.98;48.66
41246;BME280;53880;47.526;18.986;2024-01-07T10:40:42;98355.56;;;18.97;48.50
41246;BME280;53880;47.526;18.986;2024-01-07T10:43:07;98354.06;;;18.94;48.53
41246;BME280;53880;47.526;18.986;2024-01-07T10:45:25;98356.75;;;18.94;48.58
41246;BME280;53880;47.526;18.986;2024-01-07T10:47:48;98356.09;;;18.92;48.62
41246;BME280;53880;47.526;18.986;2024-01-07T10:50:09;98355.47;;;18.90;48.69
41246;BME280;53880;47.526;18.986;2024-01-07T10:52:30;98353.81;;;18.89;48.82
41246;BME280;53880;47.526;18.986;2024-01-07T10:54:51;98350.50;;;18.87;48.69
41246;BME280;53880;47.526;18.986;2024-01-07T10:57:15;98347.19;;;18.85;48.82
41246;BME280;53880;47.526;18.986;2024-01-07T10:59:39;98354.56;;;18.83;48.76
41246;BME280;53880;47.526;18.986;2024-01-07T11:02:03;98343.06;;;18.83;48.92
41246;BME280;53880;47.526;18.986;2024-01-07T11:04:42;98345.09;;;18.81;48.87
41246;BME280;53880;47.526;18.986;2024-01-07T11:07:32;98351.44;;;18.80;48.75
41246;BME280;53880;47.526;18.986;2024-01-07T11:10:20;98342.63;;;18.79;48.92
41246;BME280;53880;47.526;18.986;2024-01-07T11:12:41;98342.63;;;18.79;48.90
41246;BME280;53880;47.526;18.986;2024-01-07T11:15:02;98346.28;;;18.78;48.71
41246;BME280;53880;47.526;18.986;2024-01-07T11:19:57;98336.00;;;18.75;48.67
41246;BME280;53880;47.526;18.986;2024-01-07T11:22:27;98341.69;;;18.72;48.91
41246;BME280;53880;47.526;18.986;2024-01-07T11:24:49;98338.66;;;18.75;48.77
41246;BME280;53880;47.526;18.986;2024-01-07T11:27:04;98342.63;;;18.79;48.60
41246;BME280;53880;47.526;18.986;2024-01-07T11:29:28;98334.88;;;18.84;48.65
41246;BME280;53880;47.526;18.986;2024-01-07T11:31:48;98338.81;;;18.88;48.48
41246;BME280;53880;47.526;18.986;2024-01-07T11:34:08;98338.25;;;18.93;48.34
41246;BME280;53880;47.526;18.986;2024-01-07T11:36:26;98347.97;;;19.00;48.26
41246;BME280;53880;47.526;18.986;2024-01-07T11:38:49;98335.75;;;19.06;48.24
41246;BME280;53880;47.526;18.986;2024-01-07T11:41:05;98339.47;;;19.12;48.26
41246;BME280;53880;47.526;18.986;2024-01-07T11:43:26;98337.09;;;19.17;48.02
41246;BME280;53880;47.526;18.986;2024-01-07T11:45:46;98334.66;;;19.22;47.97
41246;BME280;53880;47.526;18.986;2024-01-07T11:48:08;98338.41;;;19.27;47.87
41246;BME280;53880;47.526;18.986;2024-01-07T11:50:28;98340.53;;;19.32;47.79
41246;BME280;53880;47.526;18.986;2024-01-07T11:52:47;98337.66;;;19.33;47.96
41246;BME280;53880;47.526;18.986;2024-01-07T11:55:05;98337.47;;;19.35;47.67
41246;BME280;53880;47.526;18.986;2024-01-07T11:57:25;98337.47;;;19.35;47.88
41246;BME280;53880;47.526;18.986;2024-01-07T11:59:45;98336.69;;;19.34;47.87
41246;BME280;53880;47.526;18.986;2024-01-07T12:02:01;98343.00;;;19.33;47.78
41246;BME280;53880;47.526;18.986;2024-01-07T12:04:23;98333.50;;;19.31;47.80
41246;BME280;53880;47.526;18.986;2024-01-07T12:06:47;98337.38;;;19.28;48.12
41246;BME280;53880;47.526;18.986;2024-01-07T12:09:02;98338.22;;;19.29;48.07
41246;BME280;53880;47.526;18.986;2024-01-07T12:11:20;98342.72;;;19.28;48.11
41246;BME280;53880;47.526;18.986;2024-01-07T12:13:39;98346.44;;;19.27;48.02